Altamont, UT

3:39 PM MDT on September 21, 2014 (GMT -0600)
HADS MOON LAKE NEAR ALTONAH 20NW UT US NWS | Change Station
CLOSE
Current Station
Personal Weather Station
Location: Altonah, UT
Elevation: 8149 ft
Nearby Weather Stations

Elev 8149 ft 40.56 °N, 110.49 °W | Updated 39 minutes ago

Overcast
Overcast
51 °F
Feels Like 51 °F
N
1
Wind Variable Wind from ENE
Gusts 3.0 mph

Today
High -- | Low -- °F
--% Chance of Precip.
Yesterday
High -- | Low -- °F
Precip. -- in
7:08 AM 7:20 PM
Waning Crescent, 5% visible
Pressure 30.06 in
Visibility 10.0 miles
Clouds Clear
Dew Point 49 °F
Humidity 93%
Rainfall 0.25 in
Snow Depth 0 in , 0 in , 1 in
UV 6 out of 12
Pollen 4.30 out of 12
Air Quality Not available.
Flu Activity Not available.
METAR KVEL 212053Z AUTO 33007KT 10SM CLR 20/13 A3021 RMK AO2 SLP179 60003 T02000128 58023

More Conditions Fewer Conditions

Pressure 30.06 in
Visibility 10.0 miles
Clouds Clear
Dew Point 49 °F
Humidity 93%
Rainfall 0.25 in
Snow Depth 0 in , 0 in , 1 in
UV 6 out of 12
Pollen 4.30 out of 12
Air Quality Not available.
Flu Activity Not available.
METAR KVEL 212053Z AUTO 33007KT 10SM CLR 20/13 A3021 RMK AO2 SLP179 60003 T02000128 58023

More Conditions Fewer Conditions

Nowcast | as of 2:23 PM MDT on September 21, 2014

Widespread showers and isolated thunderstorms over northern Utah and southwest Wyoming will continue through this afternoon. The strongest storms will impact the wastach front from Provo to Brigham City through 400 PM. Some of these storms will produce locally heavy rain and gusty winds.

×

10-Day Weather Forecast

Almanac

Astronomy

Sep. 21, 2014 Rise Set
Actual Time 7:08 AM MDT 7:20 PM MDT
Civil Twilight 6:41 AM MDT 7:47 PM MDT
Nautical Twilight 6:09 AM MDT 8:19 PM MDT
Astronomical Twilight 5:36 AM MDT 8:51 PM MDT
Moon 4:45 AM MDT 5:58 PM MDT
Length of Visible Light 13h 06m
Length of Day
12h 12m
Tomorrow will be 2m 39s shorter.
Waning Crescent, 5% of the Moon is Illuminated
Today
Waning Crescent
Sep 24
New
Oct 1
First Quarter
Oct 8
Full
Oct 15
Last Quarter

Today's Extremes

State Highs State Lows

Community

WunderPhotos

Upload Photos

1,755,264 photos uploaded!

Nearby

Snow Depth

Station Depth Elevation
Rocky Basin-Settlement 0 in 8900 ft
Kimberly Mine 0 in 9300 ft
Mammoth-Cottonwood 0 in 8800 ft
Mill-d North 0 in 8960 ft
Cascade Mountain 1 in 7768 ft

Earthquake Activity

City Distance Mag. Time & Date
No recent earthquake activity has been reported nearby.
Minimum magnitude displayed is 2.5.

Coastal Water Temperatures

Place Temperature
No Stations Reporting

Nearby Weather Stations